Time;durP1;ratioP1;P1;durP2;ratioP2;P2;SDS_P1;SDS_P2;PMS_P1;PMS_P2;Temp;Humidity;BMP_temperature;BMP_pressure;BME280_temperature;BME280_humidity;BME280_pressure;Samples;Min_cycle;Max_cycle;Signal;HPM_P1;HPM_P2
2021/05/06 00:09:00;;;;;;;0.85;0.80;;;;;;;7.79;31.22;91976.03;4984735;28;20081;-77
2021/05/06 00:14:25;;;;;;;2.33;1.00;;;;;;;7.78;31.62;91982.28;5013908;28;20096;-77
2021/05/06 00:33:19;;;;;;;2.00;0.77;;;;;;;8.21;29.74;91979.59;4992795;28;20054;-77
2021/05/06 00:35:46;;;;;;;2.03;0.82;;;;;;;8.33;29.31;91987.78;5022051;28;20088;-77
2021/05/06 00:38:16;;;;;;;2.70;1.10;;;;;;;8.49;28.49;91977.91;5008268;28;20034;-77
2021/05/06 01:04:58;;;;;;;1.67;1.00;;;;;;;8.33;30.95;91972.13;5013603;28;20124;-77
2021/05/06 01:10:12;;;;;;;0.88;0.73;;;;;;;8.29;30.56;91975.59;5010440;28;20092;-77
2021/05/06 01:12:41;;;;;;;3.72;0.85;;;;;;;8.34;30.68;91965.09;5006974;28;20504;-77
2021/05/06 01:15:07;;;;;;;1.48;0.80;;;;;;;8.35;31.16;91958.78;5013137;28;20337;-77
2021/05/06 01:17:33;;;;;;;1.40;0.80;;;;;;;8.36;30.67;91959.59;5011791;28;20132;-77
2021/05/06 01:19:59;;;;;;;3.30;1.00;;;;;;;8.35;30.60;91964.00;5009269;28;20559;-76
2021/05/06 01:22:25;;;;;;;0.98;0.73;;;;;;;8.34;30.54;91952.81;4990497;28;20038;-77
2021/05/06 01:24:56;;;;;;;1.13;0.60;;;;;;;8.36;30.40;91944.72;4991580;28;20125;-77
2021/05/06 01:30:04;;;;;;;1.95;1.10;;;;;;;8.39;30.61;91951.19;5009015;28;20034;-77
2021/05/06 01:32:38;;;;;;;1.38;0.82;;;;;;;8.39;30.39;91948.59;5002299;28;20565;-77
2021/05/06 01:35:09;;;;;;;0.70;0.70;;;;;;;8.34;30.46;91957.25;4989593;28;20077;-77
2021/05/06 01:40:41;;;;;;;2.15;0.80;;;;;;;8.30;30.63;91943.22;4990919;28;20401;-77
2021/05/06 01:58:59;;;;;;;1.98;0.80;;;;;;;8.35;30.25;91935.31;4991848;28;20046;-77
2021/05/06 02:01:25;;;;;;;2.85;0.90;;;;;;;8.32;30.26;91928.84;4990776;28;20042;-77
2021/05/06 02:03:51;;;;;;;0.80;0.77;;;;;;;8.32;29.81;91917.66;4974345;28;20034;-77
2021/05/06 02:06:17;;;;;;;1.05;0.80;;;;;;;8.29;29.95;91919.00;4992141;28;20049;-77
2021/05/06 02:08:43;;;;;;;1.13;0.70;;;;;;;8.25;30.30;91912.03;4971752;28;20038;-77
2021/05/06 02:11:14;;;;;;;2.58;0.80;;;;;;;8.22;29.76;91920.41;4990456;28;20030;-77
2021/05/06 02:13:55;;;;;;;1.40;0.77;;;;;;;8.21;30.13;91911.03;4992815;28;20038;-77
2021/05/06 02:16:33;;;;;;;2.15;0.70;;;;;;;8.18;30.31;91906.41;4983887;28;20050;-77
2021/05/06 02:19:00;;;;;;;1.55;0.93;;;;;;;8.22;28.78;91918.59;4981937;28;20038;-77
2021/05/06 02:21:26;;;;;;;1.40;0.80;;;;;;;8.33;29.48;91919.97;4990688;28;20026;-77
2021/05/06 02:23:56;;;;;;;2.42;0.85;;;;;;;8.32;31.18;91925.47;4990049;28;20038;-76
2021/05/06 02:26:22;;;;;;;2.20;0.90;;;;;;;8.23;31.56;91917.53;4987980;28;20049;-77
2021/05/06 02:28:48;;;;;;;1.65;0.80;;;;;;;8.07;32.01;91918.81;4987700;28;20481;-77
2021/05/06 02:31:16;;;;;;;1.38;0.90;;;;;;;7.89;32.60;91921.16;4991285;28;20049;-77
2021/05/06 02:33:42;;;;;;;1.13;0.70;;;;;;;7.82;32.96;91919.97;4992205;28;20037;-77
2021/05/06 02:36:09;;;;;;;1.13;0.77;;;;;;;7.66;33.95;91922.78;5004477;28;20054;-77
2021/05/06 02:38:35;;;;;;;1.25;0.70;;;;;;;7.49;34.81;91925.84;5012413;28;20503;-76
2021/05/06 02:41:01;;;;;;;1.73;0.80;;;;;;;7.34;35.36;91923.47;4988351;28;20062;-76
2021/05/06 02:43:26;;;;;;;1.40;0.80;;;;;;;7.22;35.22;91928.28;4992256;28;20034;-77
2021/05/06 02:45:52;;;;;;;1.42;0.88;;;;;;;7.10;35.30;91933.88;4985683;28;20412;-77
2021/05/06 02:48:18;;;;;;;0.68;0.60;;;;;;;6.97;36.28;91931.94;5011350;28;20550;-77
2021/05/06 02:50:46;;;;;;;6.28;1.10;;;;;;;6.86;36.84;91936.47;5011473;28;20033;-76
2021/05/06 02:53:16;;;;;;;1.25;0.80;;;;;;;6.75;38.13;91941.00;5011055;28;20029;-77
2021/05/06 02:56:11;;;;;;;0.93;0.73;;;;;;;6.64;39.60;91947.34;5011169;28;20041;-77
2021/05/06 03:03:43;;;;;;;0.68;0.55;;;;;;;6.36;38.42;91967.13;5009364;28;20335;-77
2021/05/06 03:06:14;;;;;;;1.40;1.00;;;;;;;6.29;38.50;91962.22;4999152;28;20117;-77
2021/05/06 03:08:42;;;;;;;2.53;0.88;;;;;;;6.25;38.95;91963.81;4991765;28;20084;-77
2021/05/06 03:14:26;;;;;;;1.08;0.77;;;;;;;6.13;39.82;91969.34;4992546;28;20070;-77
2021/05/06 03:24:23;;;;;;;1.42;0.80;;;;;;;5.87;40.29;91945.31;4990658;28;20022;-76
2021/05/06 03:26:48;;;;;;;1.40;0.80;;;;;;;5.82;39.97;91956.53;5006891;28;20042;-77
2021/05/06 03:29:21;;;;;;;0.90;0.80;;;;;;;5.81;39.66;91962.78;5011169;28;20085;-77
2021/05/06 03:31:59;;;;;;;1.35;0.90;;;;;;;5.81;39.96;91955.00;4991594;28;20089;-77
2021/05/06 03:42:50;;;;;;;1.45;0.73;;;;;;;5.99;37.84;91943.22;5009352;28;20154;-76
2021/05/06 03:45:39;;;;;;;1.27;0.80;;;;;;;6.15;36.44;91948.31;5010120;28;20038;-76
2021/05/06 04:12:49;;;;;;;1.05;0.73;;;;;;;7.13;33.94;91987.97;5009097;28;20042;-76
2021/05/06 04:15:23;;;;;;;1.25;0.80;;;;;;;7.12;33.71;91980.47;4991748;28;20046;-76
2021/05/06 04:17:56;;;;;;;2.28;1.00;;;;;;;7.09;33.61;91992.97;4992252;28;20038;-76
2021/05/06 04:25:52;;;;;;;1.65;0.80;;;;;;;7.28;34.76;91994.88;4989082;28;20092;-76
2021/05/06 04:36:21;;;;;;;1.08;0.75;;;;;;;7.15;38.30;92017.13;4995328;28;20064;-78
2021/05/06 04:38:47;;;;;;;2.03;1.00;;;;;;;7.19;36.07;92012.91;5017536;28;20113;-78
2021/05/06 04:41:30;;;;;;;1.45;0.90;;;;;;;7.24;36.04;92017.28;5001030;28;20033;-77
2021/05/06 04:54:41;;;;;;;2.38;0.90;;;;;;;7.40;36.77;92036.13;5009914;28;20391;-78
2021/05/06 05:05:21;;;;;;;1.50;0.80;;;;;;;7.60;38.52;92040.34;5004950;28;20042;-77
2021/05/06 05:07:50;;;;;;;1.88;1.00;;;;;;;7.69;36.33;92033.47;4992729;28;20681;-78
2021/05/06 05:10:43;;;;;;;0.90;0.70;;;;;;;7.78;35.28;92031.03;5004829;28;20046;-78
2021/05/06 05:13:38;;;;;;;1.50;0.82;;;;;;;7.86;38.32;92035.63;5002801;28;20038;-77
2021/05/06 05:23:54;;;;;;;2.92;0.90;;;;;;;8.21;39.63;92064.88;4994490;28;20046;-77
2021/05/06 05:26:19;;;;;;;2.50;0.85;;;;;;;8.40;38.79;92083.97;4979538;28;20125;-75
2021/05/06 05:28:45;;;;;;;4.65;1.00;;;;;;;8.63;37.14;92086.78;5012393;28;20055;-78
2021/05/06 05:31:11;;;;;;;1.63;0.82;;;;;;;8.76;36.14;92080.84;4995713;28;20038;-76
2021/05/06 05:33:45;;;;;;;1.05;0.80;;;;;;;8.86;36.86;92079.91;4992906;28;20113;-76
2021/05/06 05:36:22;;;;;;;1.27;0.90;;;;;;;8.95;36.13;92086.03;5000309;28;20089;-76
2021/05/06 05:54:40;;;;;;;1.00;0.80;;;;;;;9.37;38.87;92108.59;5003772;28;20117;-76
2021/05/06 05:57:09;;;;;;;2.08;1.00;;;;;;;9.67;38.11;92116.19;4998978;28;20033;-76
2021/05/06 05:59:36;;;;;;;1.23;0.93;;;;;;;10.08;36.61;92115.41;5002854;28;20037;-76
2021/05/06 06:02:02;;;;;;;1.67;0.95;;;;;;;10.61;32.49;92123.50;5009166;28;20140;-76
2021/05/06 06:04:28;;;;;;;3.47;1.20;;;;;;;11.88;28.86;92124.22;5006504;28;20539;-76
2021/05/06 06:06:53;;;;;;;2.15;0.95;;;;;;;12.80;28.55;92130.63;5003833;28;20649;-76
2021/05/06 06:09:19;;;;;;;1.60;1.02;;;;;;;13.59;29.49;92144.53;5001705;28;20045;-76
2021/05/06 06:11:45;;;;;;;1.27;0.90;;;;;;;13.23;29.13;92140.38;5004224;28;20192;-76
2021/05/06 06:14:10;;;;;;;1.98;0.98;;;;;;;14.44;26.97;92128.75;5003060;28;20046;-76
2021/05/06 06:16:39;;;;;;;1.70;0.98;;;;;;;14.66;24.29;92130.38;4995801;28;20030;-76
2021/05/06 06:19:05;;;;;;;1.80;1.00;;;;;;;15.23;26.51;92141.44;4998432;28;20562;-76
2021/05/06 06:21:39;;;;;;;1.77;0.90;;;;;;;13.44;28.72;92130.00;4977682;28;20057;-76
2021/05/06 06:24:06;;;;;;;3.25;1.15;;;;;;;13.64;30.48;92141.75;4992219;28;20080;-77
2021/05/06 06:26:32;;;;;;;3.20;1.00;;;;;;;13.89;29.67;92143.53;4995476;28;20034;-76
2021/05/06 06:29:05;;;;;;;1.80;1.00;;;;;;;13.61;30.10;92155.53;4991796;28;20053;-76
2021/05/06 06:31:48;;;;;;;2.25;1.00;;;;;;;13.38;31.74;92160.97;4993737;28;20041;-76
2021/05/06 06:34:14;;;;;;;2.33;1.00;;;;;;;13.85;31.74;92161.03;4990008;28;20030;-76
2021/05/06 06:36:43;;;;;;;1.20;1.08;;;;;;;14.78;30.75;92158.66;5005533;28;20042;-76
2021/05/06 06:39:11;;;;;;;0.98;0.82;;;;;;;17.02;25.68;92158.59;5006939;28;20172;-76
2021/05/06 06:41:36;;;;;;;1.35;1.10;;;;;;;18.76;23.13;92154.00;5004188;28;20034;-76
2021/05/06 06:44:02;;;;;;;2.72;1.10;;;;;;;19.22;22.09;92149.72;4990820;28;20053;-76
2021/05/06 06:46:28;;;;;;;2.45;1.20;;;;;;;20.14;20.69;92147.31;5000690;28;20029;-76
2021/05/06 06:48:54;;;;;;;1.35;0.85;;;;;;;21.74;19.02;92150.03;5006427;28;20041;-77
2021/05/06 06:51:20;;;;;;;2.25;0.80;;;;;;;22.16;19.47;92154.28;5008584;28;20508;-77
2021/05/06 06:53:45;;;;;;;1.42;0.70;;;;;;;21.69;20.25;92158.34;5003886;28;20096;-77
2021/05/06 06:56:11;;;;;;;2.75;0.90;;;;;;;21.03;21.33;92157.88;5019473;28;20075;-77
2021/05/06 06:58:40;;;;;;;1.25;0.88;;;;;;;20.28;21.10;92154.00;5000231;28;20049;-77
2021/05/06 07:01:09;;;;;;;2.70;0.88;;;;;;;19.82;22.15;92144.09;5009415;28;20116;-76
2021/05/06 07:03:35;;;;;;;0.80;0.60;;;;;;;19.21;19.84;92145.53;5005038;28;20049;-77
2021/05/06 07:06:03;;;;;;;1.08;0.80;;;;;;;18.81;19.66;92146.56;5000748;28;20046;-77
2021/05/06 07:08:34;;;;;;;1.65;1.00;;;;;;;17.45;26.07;92141.28;5002019;28;20408;-77
2021/05/06 07:11:02;;;;;;;2.63;1.08;;;;;;;15.55;30.08;92159.16;4996940;28;20038;-77
2021/05/06 07:13:29;;;;;;;2.05;1.17;;;;;;;14.30;31.28;92154.56;5025429;28;20139;-77
2021/05/06 07:16:06;;;;;;;2.35;1.10;;;;;;;13.73;33.61;92153.00;5009148;28;20033;-77
2021/05/06 07:18:33;;;;;;;1.45;0.90;;;;;;;13.71;33.51;92160.44;5009697;28;20034;-77
2021/05/06 07:21:02;;;;;;;3.47;0.90;;;;;;;12.70;35.53;92161.38;4977000;28;20065;-76
2021/05/06 07:23:29;;;;;;;3.65;1.20;;;;;;;13.25;35.42;92161.88;5008400;28;20052;-76
2021/05/06 07:25:56;;;;;;;1.00;0.82;;;;;;;13.93;34.12;92162.84;5010029;28;20029;-76
2021/05/06 07:28:36;;;;;;;3.05;1.08;;;;;;;13.05;35.37;92150.13;4994360;28;20088;-77
2021/05/06 07:31:03;;;;;;;3.70;1.08;;;;;;;13.29;36.18;92149.69;4990442;28;20046;-76
2021/05/06 07:33:30;;;;;;;2.08;1.20;;;;;;;12.72;35.89;92166.28;4996420;28;20042;-76
2021/05/06 07:35:57;;;;;;;0.95;0.63;;;;;;;12.80;35.86;92170.78;5004259;28;20056;-76
2021/05/06 07:38:23;;;;;;;1.35;0.85;;;;;;;12.18;35.05;92169.09;5010558;28;20089;-76
2021/05/06 07:40:51;;;;;;;2.70;1.02;;;;;;;12.83;33.15;92158.91;5010720;28;20113;-76
2021/05/06 07:43:17;;;;;;;3.35;0.90;;;;;;;12.61;35.09;92160.56;5010137;28;20388;-77
2021/05/06 07:45:43;;;;;;;2.00;1.00;;;;;;;12.59;33.80;92154.84;5009549;28;20484;-76
2021/05/06 07:48:08;;;;;;;1.58;0.93;;;;;;;12.73;33.61;92151.31;5010265;28;20087;-76
2021/05/06 07:50:35;;;;;;;1.30;0.90;;;;;;;12.21;29.90;92155.38;5008331;28;20403;-76
2021/05/06 07:53:05;;;;;;;1.38;0.93;;;;;;;12.88;31.10;92156.16;5009685;28;20168;-76
2021/05/06 07:55:31;;;;;;;2.40;1.17;;;;;;;13.09;30.08;92156.31;4989192;28;20069;-76
2021/05/06 07:57:58;;;;;;;0.85;0.80;;;;;;;13.32;28.10;92152.44;4989136;28;20169;-76
2021/05/06 08:00:25;;;;;;;1.67;1.00;;;;;;;13.06;29.03;92160.31;4991121;28;20034;-76
2021/05/06 08:02:52;;;;;;;5.32;1.10;;;;;;;13.54;32.71;92169.16;4995552;28;20164;-76
2021/05/06 08:05:17;;;;;;;2.65;1.27;;;;;;;13.61;31.75;92171.31;4994786;28;20034;-77
2021/05/06 08:07:43;;;;;;;2.22;1.00;;;;;;;13.23;34.02;92169.28;4989560;28;20165;-76
2021/05/06 08:10:10;;;;;;;2.25;1.10;;;;;;;13.41;32.25;92168.22;4990473;28;20042;-76
2021/05/06 08:12:36;;;;;;;4.13;1.27;;;;;;;13.42;34.37;92168.97;5007566;28;20041;-76
2021/05/06 08:15:07;;;;;;;2.53;1.05;;;;;;;13.11;34.13;92165.41;5009076;28;20027;-76
2021/05/06 08:17:33;;;;;;;2.45;1.10;;;;;;;12.94;35.85;92160.16;5008760;28;20566;-76
2021/05/06 08:19:59;;;;;;;2.03;1.25;;;;;;;12.81;36.94;92155.81;5008288;28;20034;-76
2021/05/06 08:22:25;;;;;;;1.83;1.10;;;;;;;12.48;32.46;92153.59;5007226;28;20040;-76
2021/05/06 08:24:51;;;;;;;3.78;1.23;;;;;;;13.43;35.27;92152.16;5000663;28;20397;-77
2021/05/06 08:27:17;;;;;;;3.10;1.00;;;;;;;12.92;37.82;92151.78;4997334;28;20043;-76
2021/05/06 08:29:42;;;;;;;1.58;0.98;;;;;;;13.17;36.53;92146.88;4997049;28;20026;-76
2021/05/06 08:32:08;;;;;;;3.10;1.05;;;;;;;12.81;33.25;92150.56;5016864;28;20046;-77
2021/05/06 08:34:34;;;;;;;1.27;0.85;;;;;;;12.95;33.06;92143.31;5011254;28;20085;-77
2021/05/06 08:37:00;;;;;;;1.75;1.00;;;;;;;13.05;32.49;92148.25;4999591;28;20407;-76
2021/05/06 08:39:25;;;;;;;1.25;0.82;;;;;;;13.16;31.70;92150.59;4992455;28;20050;-77
2021/05/06 08:41:51;;;;;;;1.42;0.88;;;;;;;13.77;32.22;92151.31;4993897;28;20108;-76
2021/05/06 08:44:20;;;;;;;2.67;0.90;;;;;;;14.07;31.17;92157.44;4992791;28;20030;-77
2021/05/06 08:47:12;;;;;;;1.75;1.00;;;;;;;14.43;30.53;92160.66;5000403;28;20046;-76
2021/05/06 08:49:36;;;;;;;2.03;0.98;;;;;;;14.75;29.66;92164.56;5012708;28;20129;-77
2021/05/06 08:52:11;;;;;;;3.42;1.05;;;;;;;14.46;33.08;92163.44;5007840;28;20045;-76
2021/05/06 08:54:39;;;;;;;1.92;1.05;;;;;;;14.44;32.11;92154.31;5012921;28;20491;-75
2021/05/06 08:57:05;;;;;;;1.40;1.00;;;;;;;14.62;32.52;92153.16;5012215;28;20080;-76
2021/05/06 08:59:31;;;;;;;2.95;1.25;;;;;;;14.43;33.56;92160.66;5012942;28;20041;-76
2021/05/06 09:01:57;;;;;;;4.25;1.00;;;;;;;14.25;33.95;92160.75;5012098;28;20035;-76
2021/05/06 09:04:25;;;;;;;1.85;1.10;;;;;;;14.14;33.27;92160.34;5005442;28;20444;-76
2021/05/06 09:06:54;;;;;;;2.20;1.20;;;;;;;13.84;35.29;92164.75;4994235;28;20480;-76
2021/05/06 09:09:21;;;;;;;1.45;1.00;;;;;;;13.49;33.36;92167.44;5011485;28;20040;-76
2021/05/06 09:12:08;;;;;;;1.63;1.02;;;;;;;13.58;35.99;92161.38;5011120;28;20033;-75
2021/05/06 09:14:41;;;;;;;1.70;1.02;;;;;;;13.36;35.82;92165.00;5007673;28;20060;-76
2021/05/06 09:17:29;;;;;;;4.10;1.13;;;;;;;13.67;35.79;92162.16;4992843;28;20038;-76
2021/05/06 09:19:55;;;;;;;2.53;1.40;;;;;;;13.56;37.27;92153.06;4991434;28;20049;-76
2021/05/06 09:22:34;;;;;;;3.03;1.40;;;;;;;13.62;37.98;92126.28;4994693;28;20030;-76
2021/05/06 09:25:32;;;;;;;2.03;1.38;;;;;;;13.25;40.61;92138.97;4992154;28;20042;-76
2021/05/06 09:28:03;;;;;;;5.13;1.83;;;;;;;13.90;43.35;92150.34;4992866;28;20050;-76
2021/05/06 09:30:49;;;;;;;5.22;2.10;;;;;;;13.26;44.00;92150.25;4993257;28;20034;-76
2021/05/06 09:33:16;;;;;;;4.93;2.20;;;;;;;13.02;47.56;92143.63;4997284;28;20050;-76
2021/05/06 09:35:49;;;;;;;4.78;2.72;;;;;;;13.12;46.23;92145.16;5017093;28;20077;-76
2021/05/06 09:38:29;;;;;;;4.80;2.50;;;;;;;13.03;47.42;92147.78;5012868;28;20045;-76
2021/05/06 09:40:58;;;;;;;3.92;2.13;;;;;;;12.63;47.88;92147.91;5010452;28;20088;-76
2021/05/06 09:43:26;;;;;;;8.40;2.45;;;;;;;12.91;49.02;92139.75;5009927;28;20116;-77
2021/05/06 09:45:52;;;;;;;5.35;2.70;;;;;;;12.75;49.28;92128.16;5004510;28;20077;-77
2021/05/06 09:48:20;;;;;;;5.78;2.67;;;;;;;13.02;49.05;92124.47;5010456;28;20068;-77
2021/05/06 09:50:48;;;;;;;4.28;2.25;;;;;;;13.22;49.15;92131.72;4999452;28;20046;-76
2021/05/06 09:53:18;;;;;;;4.20;2.45;;;;;;;13.10;49.24;92134.19;5011439;28;20092;-76
2021/05/06 09:55:48;;;;;;;4.43;2.60;;;;;;;13.59;50.26;92136.66;5009236;28;20484;-76
2021/05/06 09:58:30;;;;;;;5.70;2.70;;;;;;;13.31;49.99;92137.00;4998167;28;20488;-76
2021/05/06 10:00:57;;;;;;;6.22;3.03;;;;;;;13.65;49.97;92151.19;5002183;28;20061;-76
2021/05/06 10:03:32;;;;;;;4.95;2.72;;;;;;;13.32;49.23;92154.31;5007169;28;20097;-77
2021/05/06 10:05:57;;;;;;;4.63;2.80;;;;;;;13.11;49.76;92159.41;4994496;28;20051;-77
2021/05/06 10:08:34;;;;;;;4.95;2.65;;;;;;;13.39;49.77;92145.97;4995131;28;20477;-77
2021/05/06 10:11:17;;;;;;;4.50;2.80;;;;;;;13.35;48.85;92153.69;4998207;28;20097;-77
2021/05/06 10:13:45;;;;;;;6.50;3.40;;;;;;;13.26;49.09;92150.25;4990593;28;20046;-76
2021/05/06 10:16:12;;;;;;;7.97;3.35;;;;;;;13.36;51.28;92149.97;5004555;28;20032;-77
2021/05/06 10:18:40;;;;;;;6.65;2.95;;;;;;;13.84;51.82;92153.44;5046354;28;20065;-77
2021/05/06 10:21:07;;;;;;;5.60;2.95;;;;;;;13.99;49.67;92152.19;5030478;28;20029;-77
2021/05/06 10:23:34;;;;;;;6.13;2.42;;;;;;;13.40;49.07;92153.53;5031207;28;20452;-77
2021/05/06 10:26:01;;;;;;;10.40;3.30;;;;;;;13.65;50.11;92130.91;5004299;28;20515;-77
2021/05/06 10:28:29;;;;;;;6.15;3.00;;;;;;;13.12;51.12;92145.94;5008357;28;20121;-77
2021/05/06 10:30:55;;;;;;;5.60;2.95;;;;;;;13.73;49.17;92142.50;5005190;28;20101;-77
2021/05/06 10:33:26;;;;;;;4.10;2.58;;;;;;;14.09;49.49;92144.69;4991449;28;20141;-77
2021/05/06 10:35:52;;;;;;;4.25;2.70;;;;;;;13.79;50.21;92145.75;5008267;28;20062;-77
2021/05/06 10:38:18;;;;;;;6.45;3.28;;;;;;;13.63;51.77;92153.34;5011367;28;20029;-77
2021/05/06 10:40:44;;;;;;;6.35;3.40;;;;;;;13.77;51.72;92145.28;5010939;28;20069;-77
2021/05/06 10:43:29;;;;;;;5.82;3.00;;;;;;;13.48;49.23;92150.13;5011336;28;20129;-76
2021/05/06 10:46:04;;;;;;;5.22;2.90;;;;;;;13.78;50.70;92150.22;5010173;28;20038;-76
2021/05/06 10:48:57;;;;;;;7.03;3.22;;;;;;;14.29;50.29;92153.75;5009002;28;20073;-77
2021/05/06 10:51:53;;;;;;;6.63;3.03;;;;;;;13.36;52.21;92160.50;5010773;28;20061;-77
2021/05/06 10:54:40;;;;;;;6.65;2.97;;;;;;;13.33;51.06;92163.75;4994602;28;20044;-77
2021/05/06 10:57:14;;;;;;;6.45;2.88;;;;;;;13.74;49.43;92159.84;4990669;28;20038;-77
2021/05/06 10:59:41;;;;;;;5.93;2.90;;;;;;;13.21;51.19;92153.81;4999796;28;20488;-77
2021/05/06 11:02:08;;;;;;;5.68;2.80;;;;;;;13.65;50.79;92162.47;4994260;28;20057;-77
2021/05/06 11:04:35;;;;;;;6.28;2.53;;;;;;;13.93;48.02;92162.84;5002990;28;20038;-77
2021/05/06 11:07:22;;;;;;;7.35;2.67;;;;;;;13.82;48.93;92147.72;5010000;28;20034;-77
2021/05/06 11:09:50;;;;;;;6.90;2.78;;;;;;;13.53;49.64;92136.81;5008772;28;20397;-76
2021/05/06 11:12:16;;;;;;;7.07;3.03;;;;;;;13.58;49.70;92150.88;5010903;28;20037;-77
2021/05/06 11:15:05;;;;;;;5.30;3.10;;;;;;;14.01;46.81;92142.88;5009672;28;20036;-77
2021/05/06 11:17:43;;;;;;;6.43;2.95;;;;;;;14.20;50.17;92142.50;4993990;28;20512;-77
2021/05/06 11:20:11;;;;;;;6.28;3.13;;;;;;;14.76;48.02;92129.97;5001523;28;20141;-77
2021/05/06 11:22:43;;;;;;;5.40;2.33;;;;;;;14.38;45.33;92130.03;5008653;28;20092;-77
2021/05/06 11:25:40;;;;;;;4.15;2.25;;;;;;;14.42;43.29;92136.19;5009093;28;20109;-77
2021/05/06 11:28:15;;;;;;;14.10;2.60;;;;;;;13.99;45.25;92128.50;5009477;28;20065;-77
2021/05/06 11:30:44;;;;;;;4.53;2.70;;;;;;;14.57;49.33;92137.56;5010483;28;20042;-77
2021/05/06 11:33:19;;;;;;;6.97;3.28;;;;;;;14.61;51.31;92116.59;5008025;28;20096;-77
2021/05/06 11:36:09;;;;;;;3.90;2.15;;;;;;;14.39;42.41;92123.69;5008326;28;20080;-77
2021/05/06 11:38:39;;;;;;;6.30;2.72;;;;;;;13.71;46.40;92113.88;5006293;28;20132;-77
2021/05/06 11:41:11;;;;;;;6.22;3.33;;;;;;;13.99;47.69;92097.69;4989164;28;20035;-77
2021/05/06 11:43:45;;;;;;;4.75;2.30;;;;;;;14.05;45.21;92111.44;4994799;28;20087;-77
2021/05/06 11:46:15;;;;;;;4.97;2.60;;;;;;;14.54;46.48;92109.19;5010373;28;20033;-77
2021/05/06 11:48:44;;;;;;;3.97;2.10;;;;;;;14.60;47.91;92105.31;5007768;28;20038;-77
2021/05/06 11:51:21;;;;;;;8.35;2.92;;;;;;;14.65;46.61;92104.34;5010503;28;20030;-77
2021/05/06 11:54:16;;;;;;;5.88;2.10;;;;;;;14.76;45.14;92105.50;5009475;28;20037;-77
2021/05/06 11:56:53;;;;;;;5.20;2.70;;;;;;;14.31;46.55;92108.69;5000214;28;20413;-77
2021/05/06 11:59:23;;;;;;;6.25;2.30;;;;;;;14.08;46.32;92100.28;4995361;28;20042;-77
2021/05/06 12:01:49;;;;;;;4.55;2.10;;;;;;;14.14;45.78;92072.72;5005121;28;20045;-77
2021/05/06 12:04:25;;;;;;;3.35;2.03;;;;;;;14.01;44.73;92073.69;5012429;28;20045;-77
2021/05/06 12:06:52;;;;;;;6.10;2.58;;;;;;;14.77;46.16;92089.38;5012999;28;20069;-77
2021/05/06 12:09:25;;;;;;;3.72;1.92;;;;;;;14.42;43.20;92080.13;5008168;28;20058;-77
2021/05/06 12:11:52;;;;;;;4.75;1.95;;;;;;;14.63;45.50;92083.59;4995327;28;20516;-77
2021/05/06 12:14:29;;;;;;;4.18;2.42;;;;;;;14.29;46.10;92079.28;5034620;28;20494;-77
2021/05/06 12:16:55;;;;;;;4.38;2.45;;;;;;;14.10;47.11;92071.78;5032808;28;20033;-77
2021/05/06 12:19:20;;;;;;;5.00;2.22;;;;;;;14.23;46.94;92081.34;5033985;28;20446;-77
2021/05/06 12:21:50;;;;;;;5.35;2.30;;;;;;;13.91;47.33;92070.31;5017105;28;20488;-77
2021/05/06 12:24:41;;;;;;;4.60;2.40;;;;;;;13.44;44.87;92065.06;5011951;28;20080;-77
2021/05/06 12:27:22;;;;;;;4.82;2.42;;;;;;;13.84;46.73;92059.50;5013501;28;20042;-78
2021/05/06 12:30:11;;;;;;;5.35;2.50;;;;;;;14.17;44.69;92058.91;5012371;28;20022;-77
2021/05/06 12:32:43;;;;;;;4.95;2.28;;;;;;;14.05;44.36;92056.16;5012483;28;20510;-77
2021/05/06 12:35:09;;;;;;;5.55;2.63;;;;;;;13.54;44.94;92050.81;5010534;28;20073;-77
2021/05/06 12:37:37;;;;;;;5.03;2.50;;;;;;;13.69;46.03;92034.53;4995985;28;20125;-77
2021/05/06 12:40:10;;;;;;;5.10;2.40;;;;;;;13.43;46.30;92044.34;5010504;28;20034;-77
2021/05/06 12:42:37;;;;;;;7.70;2.70;;;;;;;13.58;46.76;92041.22;5005052;28;20064;-78
2021/05/06 12:45:05;;;;;;;5.70;2.80;;;;;;;13.75;47.80;92041.13;5009553;28;20044;-77
2021/05/06 12:47:43;;;;;;;5.65;3.13;;;;;;;13.10;49.34;92043.00;5008643;28;20477;-77
2021/05/06 12:50:09;;;;;;;7.22;3.00;;;;;;;13.34;49.54;92025.97;5010475;28;20041;-77
2021/05/06 12:52:37;;;;;;;7.20;2.95;;;;;;;13.10;50.93;92022.00;5013357;28;20429;-77
2021/05/06 12:55:25;;;;;;;6.38;2.80;;;;;;;13.19;52.04;92027.19;5013351;28;20499;-77
2021/05/06 12:58:13;;;;;;;7.53;2.85;;;;;;;13.09;52.13;92030.94;5014571;28;20100;-77
2021/05/06 13:00:59;;;;;;;6.15;2.70;;;;;;;13.08;52.26;92023.34;4995103;28;20031;-77
2021/05/06 13:03:38;;;;;;;6.90;2.97;;;;;;;12.95;52.66;92026.94;4995021;28;20045;-77
2021/05/06 13:06:09;;;;;;;4.82;2.50;;;;;;;12.93;53.07;92022.00;5002084;28;20040;-77
2021/05/06 13:08:40;;;;;;;5.93;2.63;;;;;;;12.99;52.23;92041.00;5002649;28;20030;-77
2021/05/06 13:11:08;;;;;;;8.70;2.58;;;;;;;13.11;51.38;92033.25;5003834;28;20037;-77
2021/05/06 13:13:52;;;;;;;7.50;2.80;;;;;;;13.03;51.16;92021.66;4993447;28;20030;-77
2021/05/06 13:16:34;;;;;;;5.13;2.10;;;;;;;13.04;50.57;92022.47;5007443;28;20034;-77
2021/05/06 13:19:02;;;;;;;12.55;2.80;;;;;;;12.91;51.04;92032.06;5013086;28;20034;-77
2021/05/06 13:21:27;;;;;;;5.50;2.38;;;;;;;12.82;51.20;92034.69;5009908;28;20025;-77
2021/05/06 13:23:54;;;;;;;9.52;2.35;;;;;;;12.72;52.61;92027.09;5003198;28;20562;-77
2021/05/06 13:26:34;;;;;;;6.90;2.50;;;;;;;12.86;52.80;92027.72;4998598;28;20022;-77
2021/05/06 13:29:03;;;;;;;6.82;2.40;;;;;;;12.75;54.41;92025.75;5001897;28;20342;-77
2021/05/06 13:31:35;;;;;;;8.30;3.08;;;;;;;12.76;54.82;92014.13;5010605;28;20076;-77
2021/05/06 13:36:45;;;;;;;6.07;2.28;;;;;;;12.83;53.92;92017.06;5001302;28;20052;-77
2021/05/06 13:39:13;;;;;;;9.02;2.65;;;;;;;12.78;54.17;92011.97;5003668;28;20034;-77
2021/05/06 13:41:42;;;;;;;7.60;2.72;;;;;;;12.95;54.98;92004.09;5010452;28;20025;-77
2021/05/06 13:44:09;;;;;;;7.72;2.45;;;;;;;12.80;55.85;92001.94;4979657;28;20369;-77
2021/05/06 13:46:46;;;;;;;6.80;2.45;;;;;;;12.89;55.38;92010.56;4994969;28;20037;-77
2021/05/06 13:49:13;;;;;;;7.00;2.58;;;;;;;12.95;55.69;92008.53;5026638;28;20037;-77
2021/05/06 13:51:39;;;;;;;7.93;2.60;;;;;;;12.86;56.37;92003.31;4994629;28;20034;-77
2021/05/06 13:54:04;;;;;;;7.57;2.40;;;;;;;12.65;57.02;92003.97;4996685;28;20137;-77
2021/05/06 13:56:30;;;;;;;7.10;2.60;;;;;;;12.52;57.27;91997.03;4987690;28;20125;-77
2021/05/06 13:58:56;;;;;;;8.63;2.70;;;;;;;12.63;56.57;91993.00;4997565;28;20469;-77
2021/05/06 14:01:21;;;;;;;7.93;2.75;;;;;;;12.67;56.03;91983.41;5002098;28;20487;-77
2021/05/06 14:03:47;;;;;;;7.35;2.70;;;;;;;12.54;57.16;91994.06;4977605;28;20045;-76
2021/05/06 14:06:13;;;;;;;5.93;2.40;;;;;;;12.60;57.63;91996.22;4995399;28;20165;-77
2021/05/06 14:08:39;;;;;;;7.70;2.85;;;;;;;12.78;57.33;91973.34;4995878;28;20464;-76
2021/05/06 14:11:05;;;;;;;10.98;3.00;;;;;;;12.68;57.41;91963.19;4994622;28;20042;-76
2021/05/06 14:13:32;;;;;;;7.47;2.65;;;;;;;12.79;57.42;91966.22;4991723;28;20038;-77
2021/05/06 14:15:58;;;;;;;8.00;2.72;;;;;;;12.76;57.75;91972.13;4994762;28;20049;-76
2021/05/06 14:18:25;;;;;;;10.43;3.10;;;;;;;12.65;58.57;91975.09;4997376;28;20124;-76
2021/05/06 14:20:52;;;;;;;9.65;3.40;;;;;;;12.62;58.96;91970.44;5000590;28;20117;-76
2021/05/06 14:23:19;;;;;;;8.10;2.90;;;;;;;12.47;59.04;91979.56;4979087;28;20403;-76
2021/05/06 14:25:47;;;;;;;6.80;2.83;;;;;;;12.47;59.63;91968.28;5000802;28;20049;-77
2021/05/06 14:28:13;;;;;;;8.40;3.03;;;;;;;12.51;59.08;91969.19;4999556;28;20081;-77
2021/05/06 14:30:39;;;;;;;9.07;3.30;;;;;;;12.44;59.17;91963.66;4997427;28;20499;-76
2021/05/06 14:33:05;;;;;;;7.63;2.92;;;;;;;12.42;60.16;91971.06;4993372;28;20088;-77
2021/05/06 14:35:31;;;;;;;7.35;3.00;;;;;;;12.17;60.54;91962.88;4995397;28;20050;-77
2021/05/06 14:37:57;;;;;;;6.13;2.85;;;;;;;12.18;60.72;91955.78;5000997;28;20125;-76
2021/05/06 14:40:23;;;;;;;6.63;2.35;;;;;;;12.04;60.35;91955.91;5002612;28;20042;-77
2021/05/06 14:42:49;;;;;;;6.70;2.80;;;;;;;12.12;60.79;91957.78;5005681;28;20030;-77
2021/05/06 14:45:15;;;;;;;8.18;2.90;;;;;;;12.06;61.55;91959.78;5001007;28;20034;-77
2021/05/06 14:47:41;;;;;;;7.57;3.10;;;;;;;12.11;61.84;91963.34;5005659;28;20044;-77
2021/05/06 14:50:12;;;;;;;8.05;3.17;;;;;;;11.98;61.48;91957.13;5004034;28;20373;-77
2021/05/06 14:52:39;;;;;;;9.32;3.17;;;;;;;12.07;61.92;91958.72;4995474;28;20065;-77
2021/05/06 14:55:07;;;;;;;6.55;3.00;;;;;;;12.07;61.29;91958.72;4999390;28;20032;-77